Time;durP1;ratioP1;P1;durP2;ratioP2;P2;SDS_P1;SDS_P2;PMS_P1;PMS_P2;Temp;Humidity;BMP_temperature;BMP_pressure;BME280_temperature;BME280_humidity;BME280_pressure;Samples;Min_cycle;Max_cycle;Signal;HPM_P1;HPM_P2
2022/12/29 00:02:21;;;;;;;1999.90;999.90;;;;;;;;;;5050979;28;20241;-69
2022/12/29 00:04:50;;;;;;;1999.90;999.90;;;;;;;;;;5063520;28;20636;-69
2022/12/29 00:07:18;;;;;;;1999.90;999.90;;;;;;;;;;5059323;28;20241;-69
2022/12/29 00:09:45;;;;;;;1999.90;999.90;;;;;;;;;;5062336;28;20698;-69
2022/12/29 00:12:13;;;;;;;1999.90;999.90;;;;;;;;;;5060190;28;20242;-68
2022/12/29 00:17:28;;;;;;;1999.90;999.90;;;;;;;;;;5057150;28;20325;-69
2022/12/29 00:36:33;;;;;;;1999.90;999.90;;;;;;;;;;5062671;28;20238;-69
2022/12/29 00:44:33;;;;;;;1999.90;999.90;;;;;;;;;;5064095;28;20334;-69
2022/12/29 00:47:02;;;;;;;1999.90;999.90;;;;;;;;;;5052481;28;20236;-69
2022/12/29 00:49:33;;;;;;;1999.90;999.90;;;;;;;;;;5058054;28;20362;-69
2022/12/29 00:52:02;;;;;;;1999.90;999.90;;;;;;;;;;5053547;28;20238;-69
2022/12/29 00:54:31;;;;;;;1999.90;999.90;;;;;;;;;;5057214;28;20224;-69
2022/12/29 00:56:58;;;;;;;1999.90;999.90;;;;;;;;;;5037309;28;20322;-69
2022/12/29 00:59:26;;;;;;;1999.90;999.90;;;;;;;;;;5033541;28;20243;-69
2022/12/29 01:01:57;;;;;;;1999.90;999.90;;;;;;;;;;5062817;28;20232;-69
2022/12/29 01:04:26;;;;;;;1999.90;999.90;;;;;;;;;;5072027;28;20235;-69
2022/12/29 01:06:55;;;;;;;1999.90;999.90;;;;;;;;;;5066319;28;20620;-69
2022/12/29 01:12:10;;;;;;;1999.90;999.90;;;;;;;;;;5051024;28;20257;-71
2022/12/29 01:14:39;;;;;;;1999.90;999.90;;;;;;;;;;5068650;28;20236;-69
2022/12/29 01:17:07;;;;;;;1999.90;999.90;;;;;;;;;;5053463;28;20310;-70
2022/12/29 01:19:35;;;;;;;1999.90;999.90;;;;;;;;;;5054438;28;20232;-69
2022/12/29 01:22:04;;;;;;;1999.90;999.90;;;;;;;;;;5054205;28;20223;-69
2022/12/29 01:24:32;;;;;;;1999.90;999.90;;;;;;;;;;5052678;28;20950;-69
2022/12/29 01:27:00;;;;;;;1999.90;999.90;;;;;;;;;;5055176;28;20228;-69
2022/12/29 01:29:28;;;;;;;1999.90;999.90;;;;;;;;;;5065534;28;20267;-68
2022/12/29 01:31:57;;;;;;;1999.90;999.90;;;;;;;;;;5045871;28;20263;-69
2022/12/29 01:34:24;;;;;;;1999.90;999.90;;;;;;;;;;5048177;28;20229;-69
2022/12/29 01:36:52;;;;;;;1999.90;999.90;;;;;;;;;;5045842;28;20326;-68
2022/12/29 01:39:22;;;;;;;1999.90;999.90;;;;;;;;;;5049478;28;20259;-69
2022/12/29 01:41:49;;;;;;;1999.90;999.90;;;;;;;;;;5067335;28;20232;-69
2022/12/29 01:44:36;;;;;;;1999.90;999.90;;;;;;;;;;5046352;28;20227;-69
2022/12/29 01:47:04;;;;;;;1999.90;999.90;;;;;;;;;;5044540;28;20232;-71
2022/12/29 01:49:32;;;;;;;1999.90;999.90;;;;;;;;;;5065511;28;20741;-69
2022/12/29 01:52:02;;;;;;;1999.90;999.90;;;;;;;;;;5065414;28;20235;-69
2022/12/29 01:54:33;;;;;;;1999.90;999.90;;;;;;;;;;5058831;28;20235;-69
2022/12/29 01:57:04;;;;;;;1999.90;999.90;;;;;;;;;;5063522;28;20240;-69
2022/12/29 01:59:33;;;;;;;1999.90;999.90;;;;;;;;;;5050297;28;20240;-69
2022/12/29 02:02:02;;;;;;;1999.90;999.90;;;;;;;;;;5056458;28;20236;-69
2022/12/29 02:04:31;;;;;;;1999.90;999.90;;;;;;;;;;5058642;28;20240;-70
2022/12/29 02:07:02;;;;;;;1999.90;999.90;;;;;;;;;;5063265;28;20230;-69
2022/12/29 02:09:30;;;;;;;1999.90;999.90;;;;;;;;;;5043937;28;20366;-70
2022/12/29 02:12:00;;;;;;;1999.90;999.90;;;;;;;;;;5049498;28;20231;-70
2022/12/29 02:14:28;;;;;;;1999.90;999.90;;;;;;;;;;5050854;22;20227;-73
2022/12/29 02:17:03;;;;;;;1999.90;999.90;;;;;;;;;;4973703;28;20978;-73
2022/12/29 02:19:46;;;;;;;1999.90;999.90;;;;;;;;;;4979576;28;20738;-73
2022/12/29 02:22:20;;;;;;;1999.90;999.90;;;;;;;;;;4977014;28;20259;-73
2022/12/29 02:25:05;;;;;;;1999.90;999.90;;;;;;;;;;4961900;28;20239;-73
2022/12/29 02:27:52;;;;;;;1999.90;999.90;;;;;;;;;;4945241;28;20243;-73
2022/12/29 02:30:35;;;;;;;1999.90;999.90;;;;;;;;;;4919997;28;20334;-73
2022/12/29 02:33:05;;;;;;;1999.90;999.90;;;;;;;;;;4943387;28;20815;-73
2022/12/29 02:35:37;;;;;;;1999.90;999.90;;;;;;;;;;4948450;28;20230;-73
2022/12/29 02:38:12;;;;;;;1999.90;999.90;;;;;;;;;;4947161;28;20235;-73
2022/12/29 02:40:42;;;;;;;1999.90;999.90;;;;;;;;;;4964652;28;20233;-73
2022/12/29 02:43:15;;;;;;;1999.90;999.90;;;;;;;;;;4964826;28;20310;-72
2022/12/29 02:45:48;;;;;;;1999.90;999.90;;;;;;;;;;4946881;28;20241;-73
2022/12/29 02:48:17;;;;;;;1999.90;999.90;;;;;;;;;;4964434;28;20227;-73
2022/12/29 02:50:51;;;;;;;1999.90;999.90;;;;;;;;;;4964874;28;20282;-72
2022/12/29 02:54:40;;;;;;;1999.90;999.90;;;;;;;;;;4964119;28;20235;-73
2022/12/29 02:56:07;;;;;;;1999.90;999.90;;;;;;;;;;4962632;28;20235;-73
2022/12/29 02:58:36;;;;;;;1999.90;999.90;;;;;;;;;;4947183;28;20232;-72
2022/12/29 03:01:13;;;;;;;1999.90;999.90;;;;;;;;;;4960856;28;20294;-73
2022/12/29 03:03:46;;;;;;;1999.90;999.90;;;;;;;;;;4945581;28;20226;-73
2022/12/29 03:06:20;;;;;;;1999.90;999.90;;;;;;;;;;4958555;28;20247;-73
2022/12/29 03:08:50;;;;;;;1999.90;999.90;;;;;;;;;;4960635;28;21142;-72
2022/12/29 03:16:58;;;;;;;1999.90;999.90;;;;;;;;;;4945138;28;20238;-73
2022/12/29 03:19:30;;;;;;;1999.90;999.90;;;;;;;;;;4943100;28;20238;-72
2022/12/29 03:24:55;;;;;;;1999.90;999.90;;;;;;;;;;4961977;28;20235;-72
2022/12/29 03:27:25;;;;;;;1999.90;999.90;;;;;;;;;;4962009;28;20238;-73
2022/12/29 03:29:55;;;;;;;1999.90;999.90;;;;;;;;;;4957372;28;20370;-72
2022/12/29 03:32:27;;;;;;;1999.90;999.90;;;;;;;;;;4960368;28;20239;-72
2022/12/29 03:34:57;;;;;;;1999.90;999.90;;;;;;;;;;4942944;28;20282;-73
2022/12/29 03:37:29;;;;;;;1999.90;999.90;;;;;;;;;;4974386;28;20987;-72
2022/12/29 03:39:58;;;;;;;1999.90;999.90;;;;;;;;;;4946485;28;20262;-73
2022/12/29 03:42:28;;;;;;;1999.90;999.90;;;;;;;;;;4964870;28;20235;-73
2022/12/29 03:44:57;;;;;;;1999.90;999.90;;;;;;;;;;4945670;28;20239;-73
2022/12/29 03:47:26;;;;;;;1999.90;999.90;;;;;;;;;;4945033;28;20231;-73
2022/12/29 03:49:54;;;;;;;1999.90;999.90;;;;;;;;;;4944445;28;20330;-73
2022/12/29 03:52:23;;;;;;;1999.90;999.90;;;;;;;;;;4948502;28;20246;-73
2022/12/29 03:54:53;;;;;;;1999.90;999.90;;;;;;;;;;4963172;28;20364;-73
2022/12/29 03:57:21;;;;;;;1999.90;999.90;;;;;;;;;;4946914;28;20261;-72
2022/12/29 03:59:58;;;;;;;1999.90;999.90;;;;;;;;;;4948395;28;20242;-72
2022/12/29 04:02:31;;;;;;;1999.90;999.90;;;;;;;;;;4949536;28;20250;-72
2022/12/29 04:04:59;;;;;;;1999.90;999.90;;;;;;;;;;4946828;28;20732;-74
2022/12/29 04:07:27;;;;;;;1999.90;999.90;;;;;;;;;;4966570;28;20262;-73
2022/12/29 04:09:55;;;;;;;1999.90;999.90;;;;;;;;;;4966600;28;20267;-73
2022/12/29 04:12:26;;;;;;;1999.90;999.90;;;;;;;;;;4966551;28;20238;-73
2022/12/29 04:14:54;;;;;;;1999.90;999.90;;;;;;;;;;4948359;28;20245;-73
2022/12/29 04:17:22;;;;;;;1999.90;999.90;;;;;;;;;;4947490;28;20247;-73
2022/12/29 04:20:59;;;;;;;1999.90;999.90;;;;;;;;;;4949253;28;20403;-73
2022/12/29 04:22:43;;;;;;;1999.90;999.90;;;;;;;;;;4950210;28;20455;-72
2022/12/29 04:25:11;;;;;;;1999.90;999.90;;;;;;;;;;4961890;28;20419;-73
2022/12/29 04:27:39;;;;;;;1999.90;999.90;;;;;;;;;;4948510;28;20902;-73
2022/12/29 04:30:32;;;;;;;1999.90;999.90;;;;;;;;;;4949513;28;21027;-73
2022/12/29 04:33:08;;;;;;;1999.90;999.90;;;;;;;;;;4947339;28;20399;-73
2022/12/29 04:35:39;;;;;;;1999.90;999.90;;;;;;;;;;4962300;28;20419;-73
2022/12/29 04:38:08;;;;;;;1999.90;999.90;;;;;;;;;;4946922;28;20427;-72
2022/12/29 04:40:38;;;;;;;1999.90;999.90;;;;;;;;;;4947361;28;20417;-73
2022/12/29 04:43:07;;;;;;;1999.90;999.90;;;;;;;;;;4947490;28;20486;-73
2022/12/29 04:45:44;;;;;;;1999.90;999.90;;;;;;;;;;4954403;28;20411;-72
2022/12/29 04:48:24;;;;;;;1999.90;999.90;;;;;;;;;;4946317;28;20250;-73
2022/12/29 04:51:07;;;;;;;1999.90;999.90;;;;;;;;;;4945978;28;20395;-73
2022/12/29 04:53:38;;;;;;;1999.90;999.90;;;;;;;;;;4962864;28;20414;-73
2022/12/29 04:56:06;;;;;;;1999.90;999.90;;;;;;;;;;4960517;28;20414;-73
2022/12/29 04:58:34;;;;;;;1999.90;999.90;;;;;;;;;;4962953;28;20498;-73
2022/12/29 05:01:02;;;;;;;1999.90;999.90;;;;;;;;;;4958335;28;20434;-73
2022/12/29 05:03:31;;;;;;;1999.90;999.90;;;;;;;;;;4960499;28;20427;-73
2022/12/29 05:05:59;;;;;;;1999.90;999.90;;;;;;;;;;4941782;28;20455;-73
2022/12/29 05:08:29;;;;;;;1999.90;999.90;;;;;;;;;;4944680;28;20315;-73
2022/12/29 05:10:59;;;;;;;1999.90;999.90;;;;;;;;;;4943500;28;20388;-73
2022/12/29 05:13:28;;;;;;;1999.90;999.90;;;;;;;;;;4944553;28;20411;-73
2022/12/29 05:15:56;;;;;;;1999.90;999.90;;;;;;;;;;4960588;28;20498;-74
2022/12/29 05:18:25;;;;;;;1999.90;999.90;;;;;;;;;;4958014;28;20478;-73
2022/12/29 05:20:54;;;;;;;1999.90;999.90;;;;;;;;;;4945974;28;20403;-73
2022/12/29 05:23:23;;;;;;;1999.90;999.90;;;;;;;;;;4946984;28;20514;-73
2022/12/29 05:25:58;;;;;;;1999.90;999.90;;;;;;;;;;4944582;28;20419;-73
2022/12/29 05:28:31;;;;;;;1999.90;999.90;;;;;;;;;;4960327;28;20474;-72
2022/12/29 05:31:12;;;;;;;1999.90;999.90;;;;;;;;;;4945238;28;20411;-73
2022/12/29 05:33:40;;;;;;;1999.90;999.90;;;;;;;;;;4945938;28;20502;-74
2022/12/29 05:36:09;;;;;;;1999.90;999.90;;;;;;;;;;4962009;28;20415;-73
2022/12/29 05:38:41;;;;;;;1999.90;999.90;;;;;;;;;;4947197;28;20506;-73
2022/12/29 05:41:11;;;;;;;1999.90;999.90;;;;;;;;;;4946548;28;20408;-73
2022/12/29 05:44:02;;;;;;;1999.90;999.90;;;;;;;;;;4958490;28;20418;-73
2022/12/29 05:46:48;;;;;;;1999.90;999.90;;;;;;;;;;4964913;28;20419;-73
2022/12/29 05:49:16;;;;;;;1999.90;999.90;;;;;;;;;;4962017;28;20430;-73
2022/12/29 05:52:11;;;;;;;1999.90;999.90;;;;;;;;;;4961309;28;20436;-73
2022/12/29 05:54:39;;;;;;;1999.90;999.90;;;;;;;;;;4945327;28;20415;-73
2022/12/29 05:57:13;;;;;;;1999.90;999.90;;;;;;;;;;4945572;28;20400;-73
2022/12/29 05:59:44;;;;;;;1999.90;999.90;;;;;;;;;;4946828;28;20427;-73
2022/12/29 06:02:12;;;;;;;1999.90;999.90;;;;;;;;;;4951060;28;20403;-73
2022/12/29 06:04:42;;;;;;;1999.90;999.90;;;;;;;;;;4945480;28;20395;-73
2022/12/29 06:07:10;;;;;;;1999.90;999.90;;;;;;;;;;4946268;28;21988;-73
2022/12/29 06:09:42;;;;;;;1999.90;999.90;;;;;;;;;;4962947;28;21506;-73
2022/12/29 06:12:10;;;;;;;1999.90;999.90;;;;;;;;;;4963010;28;21176;-73
2022/12/29 06:14:42;;;;;;;1999.90;999.90;;;;;;;;;;4949077;28;20446;-73
2022/12/29 06:17:10;;;;;;;1999.90;999.90;;;;;;;;;;4976066;28;20551;-73
2022/12/29 06:19:39;;;;;;;1999.90;999.90;;;;;;;;;;4945654;28;20833;-73
2022/12/29 06:22:07;;;;;;;1999.90;999.90;;;;;;;;;;4967508;28;20439;-73
2022/12/29 06:24:36;;;;;;;1999.90;999.90;;;;;;;;;;4964988;28;20399;-73
2022/12/29 06:27:04;;;;;;;1999.90;999.90;;;;;;;;;;4964745;28;20436;-73
2022/12/29 06:29:32;;;;;;;1999.90;999.90;;;;;;;;;;4984282;28;20399;-74
2022/12/29 06:32:01;;;;;;;1999.90;999.90;;;;;;;;;;4967258;28;20375;-74
2022/12/29 06:34:32;;;;;;;1999.90;999.90;;;;;;;;;;4950390;28;20879;-73
2022/12/29 06:37:00;;;;;;;1999.90;999.90;;;;;;;;;;4962665;28;20411;-72
2022/12/29 06:39:29;;;;;;;1999.90;999.90;;;;;;;;;;4963703;28;20419;-73
2022/12/29 06:42:04;;;;;;;1999.90;999.90;;;;;;;;;;4942412;28;20462;-75
2022/12/29 06:44:58;;;;;;;1999.90;999.90;;;;;;;;;;4965830;28;21080;-74
2022/12/29 06:47:27;;;;;;;1999.90;999.90;;;;;;;;;;4974613;28;20567;-75
2022/12/29 06:49:55;;;;;;;1999.90;999.90;;;;;;;;;;4957811;28;20510;-75
2022/12/29 06:52:24;;;;;;;1999.90;999.90;;;;;;;;;;4969973;28;20395;-72
2022/12/29 06:54:52;;;;;;;1999.90;999.90;;;;;;;;;;4937881;28;20411;-73
2022/12/29 06:57:20;;;;;;;1999.90;999.90;;;;;;;;;;4943188;28;20495;-72
2022/12/29 06:59:48;;;;;;;1999.90;999.90;;;;;;;;;;4960107;28;20427;-72
2022/12/29 07:02:18;;;;;;;1999.90;999.90;;;;;;;;;;4941355;28;21747;-72
2022/12/29 07:04:47;;;;;;;1999.90;999.90;;;;;;;;;;4959890;28;20512;-73
2022/12/29 07:07:15;;;;;;;1999.90;999.90;;;;;;;;;;4972727;28;20517;-72
2022/12/29 07:09:44;;;;;;;1999.90;999.90;;;;;;;;;;4962102;28;20954;-73
2022/12/29 07:12:12;;;;;;;1999.90;999.90;;;;;;;;;;4943841;28;20502;-73
2022/12/29 07:14:40;;;;;;;1999.90;999.90;;;;;;;;;;4963711;28;20423;-72
2022/12/29 07:17:10;;;;;;;1999.90;999.90;;;;;;;;;;4961338;28;20411;-72
2022/12/29 07:19:39;;;;;;;1999.90;999.90;;;;;;;;;;4962942;28;21178;-73
2022/12/29 07:22:09;;;;;;;1999.90;999.90;;;;;;;;;;4945521;28;20490;-73
2022/12/29 07:24:37;;;;;;;1999.90;999.90;;;;;;;;;;4966026;28;20426;-73
2022/12/29 07:27:05;;;;;;;1999.90;999.90;;;;;;;;;;4959353;28;20500;-73
2022/12/29 07:29:33;;;;;;;1999.90;999.90;;;;;;;;;;4946684;28;20454;-73
2022/12/29 07:32:01;;;;;;;1999.90;999.90;;;;;;;;;;4962724;28;20924;-73
2022/12/29 07:34:30;;;;;;;1999.90;999.90;;;;;;;;;;4980591;28;21265;-72
2022/12/29 07:36:58;;;;;;;1999.90;999.90;;;;;;;;;;4942196;28;20447;-73
2022/12/29 07:39:27;;;;;;;1999.90;999.90;;;;;;;;;;4960854;28;20482;-73
2022/12/29 07:41:55;;;;;;;1999.90;999.90;;;;;;;;;;4959821;28;20910;-73
2022/12/29 07:44:38;;;;;;;1999.90;999.90;;;;;;;;;;4962312;28;20442;-73
2022/12/29 07:47:33;;;;;;;1999.90;999.90;;;;;;;;;;4943947;28;20438;-73
2022/12/29 07:50:01;;;;;;;1999.90;999.90;;;;;;;;;;4958652;28;20514;-73
2022/12/29 07:52:29;;;;;;;1999.90;999.90;;;;;;;;;;4960946;28;20486;-74
2022/12/29 07:54:58;;;;;;;1999.90;999.90;;;;;;;;;;4955009;28;20950;-73
2022/12/29 07:57:26;;;;;;;1999.90;999.90;;;;;;;;;;4960738;28;20455;-73
2022/12/29 07:59:59;;;;;;;1999.90;999.90;;;;;;;;;;4959604;28;21196;-73
2022/12/29 08:02:28;;;;;;;1999.90;999.90;;;;;;;;;;4960740;28;20401;-73
2022/12/29 08:04:56;;;;;;;1999.90;999.90;;;;;;;;;;4958734;28;20821;-73
2022/12/29 08:07:24;;;;;;;1999.90;999.90;;;;;;;;;;4961582;28;20407;-73
2022/12/29 08:09:52;;;;;;;1999.90;999.90;;;;;;;;;;4962117;28;21247;-73
2022/12/29 08:12:21;;;;;;;1999.90;999.90;;;;;;;;;;4961207;28;20407;-73
2022/12/29 08:14:49;;;;;;;1999.90;999.90;;;;;;;;;;4960478;28;20423;-73
2022/12/29 08:17:17;;;;;;;1999.90;999.90;;;;;;;;;;4962365;28;20470;-73
2022/12/29 08:19:45;;;;;;;1999.90;999.90;;;;;;;;;;4942899;28;20529;-72
2022/12/29 08:22:14;;;;;;;1999.90;999.90;;;;;;;;;;4957943;28;20414;-72
2022/12/29 08:24:42;;;;;;;1999.90;999.90;;;;;;;;;;4961465;28;20867;-72
2022/12/29 08:27:10;;;;;;;1999.90;999.90;;;;;;;;;;4962956;28;20495;-72
2022/12/29 08:29:48;;;;;;;1999.90;999.90;;;;;;;;;;4962588;28;20427;-72
2022/12/29 08:32:17;;;;;;;1999.90;999.90;;;;;;;;;;4978294;28;20403;-72
2022/12/29 08:34:45;;;;;;;1999.90;999.90;;;;;;;;;;4965468;28;20413;-73
2022/12/29 08:37:13;;;;;;;1999.90;999.90;;;;;;;;;;4966828;28;21213;-72
2022/12/29 08:39:41;;;;;;;1999.90;999.90;;;;;;;;;;4963905;28;20418;-72
2022/12/29 08:42:09;;;;;;;1999.90;999.90;;;;;;;;;;4959485;28;20407;-72
2022/12/29 08:44:37;;;;;;;1999.90;999.90;;;;;;;;;;4964698;28;20406;-72
2022/12/29 08:47:07;;;;;;;1999.90;999.90;;;;;;;;;;4963725;28;20403;-72
2022/12/29 08:49:35;;;;;;;1999.90;999.90;;;;;;;;;;4963890;28;20766;-72
2022/12/29 08:52:03;;;;;;;1999.90;999.90;;;;;;;;;;4963244;28;20406;-72
2022/12/29 08:54:31;;;;;;;1999.90;999.90;;;;;;;;;;4963141;28;20402;-72
2022/12/29 08:56:59;;;;;;;1999.90;999.90;;;;;;;;;;4962773;28;20483;-71
2022/12/29 08:59:35;;;;;;;1999.90;999.90;;;;;;;;;;4961342;28;20633;-72
2022/12/29 09:02:03;;;;;;;1999.90;999.90;;;;;;;;;;4956412;28;20435;-72
2022/12/29 09:04:32;;;;;;;1999.90;999.90;;;;;;;;;;4944162;28;20401;-72
2022/12/29 09:07:01;;;;;;;1999.90;999.90;;;;;;;;;;4959467;28;20556;-72
2022/12/29 09:09:29;;;;;;;1999.90;999.90;;;;;;;;;;4945265;28;20486;-72
2022/12/29 09:11:57;;;;;;;1999.90;999.90;;;;;;;;;;4944157;28;20403;-72
2022/12/29 09:14:25;;;;;;;1999.90;999.90;;;;;;;;;;4962616;28;21229;-72
2022/12/29 09:19:40;;;;;;;1999.90;999.90;;;;;;;;;;4964101;28;20969;-72
2022/12/29 09:22:08;;;;;;;1999.90;999.90;;;;;;;;;;4960335;28;20434;-73
2022/12/29 09:24:36;;;;;;;1999.90;999.90;;;;;;;;;;4945789;28;20502;-74
2022/12/29 09:27:05;;;;;;;1999.90;999.90;;;;;;;;;;4960733;28;20720;-73
2022/12/29 09:29:33;;;;;;;1999.90;999.90;;;;;;;;;;4961896;28;20510;-73
2022/12/29 09:32:01;;;;;;;1999.90;999.90;;;;;;;;;;4960850;28;20382;-74
2022/12/29 09:34:34;;;;;;;1999.90;999.90;;;;;;;;;;4978733;28;20242;-73
2022/12/29 09:37:03;;;;;;;1999.90;999.90;;;;;;;;;;4958039;28;20242;-73
2022/12/29 09:39:31;;;;;;;1999.90;999.90;;;;;;;;;;4960222;28;20550;-73
2022/12/29 09:42:02;;;;;;;1999.90;999.90;;;;;;;;;;4959620;28;20263;-73
2022/12/29 09:44:37;;;;;;;1999.90;999.90;;;;;;;;;;4962167;28;20435;-75
2022/12/29 09:47:07;;;;;;;1999.90;999.90;;;;;;;;;;4962838;28;20435;-73
2022/12/29 09:49:40;;;;;;;1999.90;999.90;;;;;;;;;;4945910;28;20416;-73
2022/12/29 09:52:13;;;;;;;1999.90;999.90;;;;;;;;;;4963204;28;20859;-72
2022/12/29 09:54:46;;;;;;;1999.90;999.90;;;;;;;;;;4962815;28;20501;-73
2022/12/29 09:57:29;;;;;;;1999.90;999.90;;;;;;;;;;4962576;28;20403;-74
2022/12/29 09:59:59;;;;;;;1999.90;999.90;;;;;;;;;;4978131;28;21011;-74
2022/12/29 10:02:33;;;;;;;1999.90;999.90;;;;;;;;;;4962453;28;20491;-74
2022/12/29 10:05:05;;;;;;;1999.90;999.90;;;;;;;;;;4979181;28;20464;-74
2022/12/29 10:07:38;;;;;;;1999.90;999.90;;;;;;;;;;4946598;28;20255;-74
2022/12/29 10:10:21;;;;;;;1999.90;999.90;;;;;;;;;;4962754;28;21064;-72
2022/12/29 10:12:58;;;;;;;1999.90;999.90;;;;;;;;;;4960112;28;20927;-73
2022/12/29 10:15:35;;;;;;;1999.90;999.90;;;;;;;;;;4963721;28;20250;-74
2022/12/29 10:18:06;;;;;;;1999.90;999.90;;;;;;;;;;4961792;28;20400;-74
2022/12/29 10:20:39;;;;;;;1999.90;999.90;;;;;;;;;;4979605;28;20415;-73
2022/12/29 10:23:20;;;;;;;1999.90;999.90;;;;;;;;;;4962854;28;21231;-73
2022/12/29 10:25:49;;;;;;;1999.90;999.90;;;;;;;;;;4958900;28;20964;-74
2022/12/29 10:28:20;;;;;;;1999.90;999.90;;;;;;;;;;4961909;28;20736;-74
2022/12/29 10:30:49;;;;;;;1999.90;999.90;;;;;;;;;;4960537;28;20423;-74
2022/12/29 10:33:20;;;;;;;1999.90;999.90;;;;;;;;;;4945402;28;20414;-74
2022/12/29 10:35:49;;;;;;;1999.90;999.90;;;;;;;;;;4963798;28;20263;-74
2022/12/29 10:38:21;;;;;;;1999.90;999.90;;;;;;;;;;4965396;28;21008;-73
2022/12/29 10:40:51;;;;;;;1999.90;999.90;;;;;;;;;;4943048;28;20701;-71
2022/12/29 10:43:26;;;;;;;1999.90;999.90;;;;;;;;;;4963390;28;20830;-73
2022/12/29 10:45:57;;;;;;;1999.90;999.90;;;;;;;;;;4961962;28;20297;-73
2022/12/29 10:48:26;;;;;;;1999.90;999.90;;;;;;;;;;4945949;28;20314;-73
2022/12/29 10:51:00;;;;;;;1999.90;999.90;;;;;;;;;;4961827;28;20290;-73
2022/12/29 10:53:34;;;;;;;1999.90;999.90;;;;;;;;;;4960387;28;20314;-73
2022/12/29 10:56:03;;;;;;;1999.90;999.90;;;;;;;;;;4958890;28;20655;-73
2022/12/29 10:58:32;;;;;;;1999.90;999.90;;;;;;;;;;4962254;28;20231;-72
2022/12/29 11:01:00;;;;;;;1999.90;999.90;;;;;;;;;;4956838;28;20250;-73
2022/12/29 11:03:43;;;;;;;1999.90;999.90;;;;;;;;;;4962613;28;20250;-73
2022/12/29 11:06:12;;;;;;;1999.90;999.90;;;;;;;;;;4935784;28;20321;-73
2022/12/29 11:08:46;;;;;;;1999.90;999.90;;;;;;;;;;4961040;28;20246;-73
2022/12/29 11:11:22;;;;;;;1999.90;999.90;;;;;;;;;;4954592;28;20515;-72
2022/12/29 11:13:51;;;;;;;1999.90;999.90;;;;;;;;;;4958945;28;20511;-73
2022/12/29 11:16:30;;;;;;;1999.90;999.90;;;;;;;;;;4961150;28;20266;-73
2022/12/29 11:18:59;;;;;;;1999.90;999.90;;;;;;;;;;4958264;28;20323;-72
2022/12/29 11:21:31;;;;;;;1999.90;999.90;;;;;;;;;;4946916;28;20262;-73
2022/12/29 11:24:01;;;;;;;1999.90;999.90;;;;;;;;;;4944569;28;20235;-73
2022/12/29 11:26:30;;;;;;;1999.90;999.90;;;;;;;;;;4955750;28;20727;-73
2022/12/29 11:29:15;;;;;;;1999.90;999.90;;;;;;;;;;4959055;28;20305;-73
2022/12/29 11:31:43;;;;;;;1999.90;999.90;;;;;;;;;;4945504;28;20720;-72
2022/12/29 11:34:17;;;;;;;1999.90;999.90;;;;;;;;;;4958342;28;20626;-72
2022/12/29 11:36:46;;;;;;;1999.90;999.90;;;;;;;;;;4960957;28;20391;-72
2022/12/29 11:39:25;;;;;;;1999.90;999.90;;;;;;;;;;4961826;28;21025;-72
2022/12/29 11:41:54;;;;;;;1999.90;999.90;;;;;;;;;;4963914;28;20235;-72
2022/12/29 11:44:22;;;;;;;1999.90;999.90;;;;;;;;;;4946687;28;20243;-72
2022/12/29 11:46:52;;;;;;;1999.90;999.90;;;;;;;;;;4944614;28;20290;-72
2022/12/29 11:49:20;;;;;;;1999.90;999.90;;;;;;;;;;4962817;28;20390;-72
2022/12/29 11:51:50;;;;;;;1999.90;999.90;;;;;;;;;;4962664;28;21230;-73
2022/12/29 11:54:19;;;;;;;1999.90;999.90;;;;;;;;;;4961644;28;20227;-73
2022/12/29 11:56:49;;;;;;;1999.90;999.90;;;;;;;;;;4947499;28;20263;-72
2022/12/29 11:59:38;;;;;;;1999.90;999.90;;;;;;;;;;4947309;28;20238;-72
2022/12/29 12:02:16;;;;;;;1999.90;999.90;;;;;;;;;;4965140;28;20239;-72
2022/12/29 12:04:44;;;;;;;1999.90;999.90;;;;;;;;;;4965979;28;20346;-72
2022/12/29 12:07:14;;;;;;;1999.90;999.90;;;;;;;;;;4961978;28;20470;-72
2022/12/29 12:09:44;;;;;;;1999.90;999.90;;;;;;;;;;4961701;28;20411;-72
2022/12/29 12:12:23;;;;;;;1999.90;999.90;;;;;;;;;;4950667;28;20272;-72
2022/12/29 12:14:56;;;;;;;1999.90;999.90;;;;;;;;;;4970839;28;20239;-72
2022/12/29 12:17:41;;;;;;;1999.90;999.90;;;;;;;;;;4947868;28;20716;-74
2022/12/29 12:20:17;;;;;;;1999.90;999.90;;;;;;;;;;4965797;28;20468;-72
2022/12/29 12:22:48;;;;;;;1999.90;999.90;;;;;;;;;;4965045;28;21011;-71
2022/12/29 12:25:19;;;;;;;1999.90;999.90;;;;;;;;;;4966946;28;20291;-72
2022/12/29 12:27:51;;;;;;;1999.90;999.90;;;;;;;;;;4983547;28;20279;-72
2022/12/29 12:30:20;;;;;;;1999.90;999.90;;;;;;;;;;4964051;28;20311;-72
2022/12/29 12:32:51;;;;;;;1999.90;999.90;;;;;;;;;;4962245;28;20415;-73
2022/12/29 12:35:25;;;;;;;1999.90;999.90;;;;;;;;;;4960917;28;20231;-73
2022/12/29 12:37:59;;;;;;;1999.90;999.90;;;;;;;;;;4961213;28;20237;-72
2022/12/29 12:40:44;;;;;;;1999.90;999.90;;;;;;;;;;4964633;28;20310;-73
2022/12/29 12:43:30;;;;;;;1999.90;999.90;;;;;;;;;;4962249;28;20233;-72
2022/12/29 12:46:03;;;;;;;1999.90;999.90;;;;;;;;;;4961181;28;20266;-72
2022/12/29 12:48:45;;;;;;;1999.90;999.90;;;;;;;;;;4976738;28;20243;-72
2022/12/29 12:51:19;;;;;;;1999.90;999.90;;;;;;;;;;4942178;28;20243;-72
2022/12/29 12:53:56;;;;;;;1999.90;999.90;;;;;;;;;;4962918;28;20294;-72
2022/12/29 12:56:43;;;;;;;1999.90;999.90;;;;;;;;;;4961782;28;20242;-72
2022/12/29 12:59:18;;;;;;;1999.90;999.90;;;;;;;;;;4961707;28;20269;-72
2022/12/29 13:01:51;;;;;;;1999.90;999.90;;;;;;;;;;4961258;28;20262;-72
2022/12/29 13:04:27;;;;;;;1999.90;999.90;;;;;;;;;;4964346;28;20231;-72
2022/12/29 13:07:00;;;;;;;1999.90;999.90;;;;;;;;;;4961080;28;20235;-72
2022/12/29 13:09:40;;;;;;;1999.90;999.90;;;;;;;;;;4961400;28;20232;-72
2022/12/29 13:12:14;;;;;;;1999.90;999.90;;;;;;;;;;4978641;28;20317;-72
2022/12/29 13:14:50;;;;;;;1999.90;999.90;;;;;;;;;;4968277;28;20307;-71
2022/12/29 13:17:24;;;;;;;1999.90;999.90;;;;;;;;;;4966932;28;20303;-72
2022/12/29 13:19:55;;;;;;;1999.90;999.90;;;;;;;;;;4945449;28;20418;-73
2022/12/29 13:22:26;;;;;;;1999.90;999.90;;;;;;;;;;4978194;28;20372;-72
2022/12/29 13:25:03;;;;;;;1999.90;999.90;;;;;;;;;;4963946;28;20446;-72
2022/12/29 13:27:36;;;;;;;1999.90;999.90;;;;;;;;;;4946149;28;20409;-73
2022/12/29 13:30:09;;;;;;;1999.90;999.90;;;;;;;;;;4962919;28;20273;-73
2022/12/29 13:32:45;;;;;;;1999.90;999.90;;;;;;;;;;4941667;28;20263;-73
2022/12/29 13:35:22;;;;;;;1999.90;999.90;;;;;;;;;;4952280;28;20237;-73
2022/12/29 13:37:54;;;;;;;1999.90;999.90;;;;;;;;;;4958179;28;20246;-73
2022/12/29 13:40:24;;;;;;;1999.90;999.90;;;;;;;;;;4963163;28;20322;-73
2022/12/29 13:42:53;;;;;;;1999.90;999.90;;;;;;;;;;4957423;28;20318;-73
2022/12/29 13:45:24;;;;;;;1999.90;999.90;;;;;;;;;;4960921;28;20243;-72
2022/12/29 13:47:56;;;;;;;1999.90;999.90;;;;;;;;;;4958235;28;20231;-72
2022/12/29 13:50:26;;;;;;;1999.90;999.90;;;;;;;;;;4960910;28;21137;-72
2022/12/29 13:53:00;;;;;;;1999.90;999.90;;;;;;;;;;4962092;28;20243;-72
2022/12/29 13:55:30;;;;;;;1999.90;999.90;;;;;;;;;;4964516;28;20322;-72
2022/12/29 13:58:03;;;;;;;1999.90;999.90;;;;;;;;;;4961186;28;20235;-72
2022/12/29 14:00:36;;;;;;;1999.90;999.90;;;;;;;;;;4947896;28;20231;-72
2022/12/29 14:03:13;;;;;;;1999.90;999.90;;;;;;;;;;4965041;28;20231;-72
2022/12/29 14:05:44;;;;;;;1999.90;999.90;;;;;;;;;;4945706;28;20246;-72
2022/12/29 14:08:16;;;;;;;1999.90;999.90;;;;;;;;;;4947897;28;20238;-72
2022/12/29 14:10:48;;;;;;;1999.90;999.90;;;;;;;;;;4947967;28;20239;-72
2022/12/29 14:13:17;;;;;;;1999.90;999.90;;;;;;;;;;4945425;28;20307;-72
2022/12/29 14:15:51;;;;;;;1999.90;999.90;;;;;;;;;;4959537;28;20235;-72
2022/12/29 14:18:20;;;;;;;1999.90;999.90;;;;;;;;;;4959480;28;20238;-74
2022/12/29 14:20:53;;;;;;;1999.90;999.90;;;;;;;;;;4960392;28;20256;-74
2022/12/29 14:23:29;;;;;;;1999.90;999.90;;;;;;;;;;4963515;28;20239;-72
2022/12/29 14:26:00;;;;;;;1999.90;999.90;;;;;;;;;;4963403;28;20234;-72
2022/12/29 14:28:29;;;;;;;1999.90;999.90;;;;;;;;;;4945884;28;20286;-72
2022/12/29 14:30:59;;;;;;;1999.90;999.90;;;;;;;;;;4942472;28;20254;-72
2022/12/29 14:33:28;;;;;;;1999.90;999.90;;;;;;;;;;4958645;28;20684;-72
2022/12/29 14:35:56;;;;;;;1999.90;999.90;;;;;;;;;;4961575;28;20290;-72
2022/12/29 14:38:32;;;;;;;1999.90;999.90;;;;;;;;;;4960692;28;20294;-72
2022/12/29 14:41:33;;;;;;;1999.90;999.90;;;;;;;;;;4947439;28;20237;-72
2022/12/29 14:44:03;;;;;;;1999.90;999.90;;;;;;;;;;4887837;29;20273;-72
2022/12/29 14:46:46;;;;;;;1999.90;999.90;;;;;;;;;;4888325;29;20241;-72